Time;durP1;ratioP1;P1;durP2;ratioP2;P2;SDS_P1;SDS_P2;PMS_P1;PMS_P2;Temp;Humidity;BMP_temperature;BMP_pressure;BME280_temperature;BME280_humidity;BME280_pressure;Samples;Min_cycle;Max_cycle;Signal;HPM_P1;HPM_P2
2023/03/05 00:00:23;;;;;;;8.20;7.60;;;;;;;20.20;33.58;94555.69;6133404;28;110271;-60
2023/03/05 00:03:26;;;;;;;8.93;8.20;;;;;;;20.19;33.61;94541.63;6138689;28;109275;-60
2023/03/05 00:06:30;;;;;;;8.90;8.10;;;;;;;20.20;33.74;94545.06;6138364;28;109195;-60
2023/03/05 00:09:33;;;;;;;8.87;8.03;;;;;;;20.21;33.67;94543.97;6128191;28;109417;-59
2023/03/05 00:12:39;;;;;;;9.10;8.30;;;;;;;20.17;33.53;94541.16;6139439;28;109763;-59
2023/03/05 00:15:42;;;;;;;9.07;8.27;;;;;;;20.15;33.65;94527.38;6139098;28;109111;-59
2023/03/05 00:18:46;;;;;;;9.30;8.50;;;;;;;20.19;33.59;94535.53;6139082;28;109000;-59
2023/03/05 00:21:49;;;;;;;8.97;8.27;;;;;;;20.18;33.66;94534.75;6128776;28;110204;-59
2023/03/05 00:24:52;;;;;;;9.40;8.60;;;;;;;20.20;33.53;94537.09;6138685;28;109210;-59
2023/03/05 00:27:57;;;;;;;9.00;8.20;;;;;;;20.19;33.61;94527.56;6138992;28;109264;-59
2023/03/05 00:31:01;;;;;;;9.77;8.87;;;;;;;20.17;33.78;94519.13;6135610;28;109108;-60
2023/03/05 00:34:06;;;;;;;9.47;8.60;;;;;;;20.20;33.64;94521.16;6132279;28;108919;-59
2023/03/05 00:37:09;;;;;;;9.13;8.33;;;;;;;20.19;33.63;94514.28;6138915;28;109159;-59
2023/03/05 00:40:12;;;;;;;9.50;8.70;;;;;;;20.19;33.56;94511.63;6138864;28;109111;-59
2023/03/05 00:43:17;;;;;;;8.97;8.17;;;;;;;20.19;33.70;94517.72;6128818;28;110836;-59
2023/03/05 00:46:20;;;;;;;9.43;8.63;;;;;;;20.20;33.76;94513.19;6138337;28;109073;-59
2023/03/05 00:49:24;;;;;;;9.27;8.47;;;;;;;20.14;33.60;94493.94;6138756;28;109299;-59
2023/03/05 00:52:27;;;;;;;9.17;8.37;;;;;;;20.20;33.68;94510.53;6138630;28;108819;-59
2023/03/05 00:55:30;;;;;;;8.13;7.43;;;;;;;20.19;33.39;94501.78;6126884;28;110175;-59
2023/03/05 00:58:34;;;;;;;9.23;8.43;;;;;;;20.19;33.74;94496.47;6138673;28;111169;-59
2023/03/05 01:01:38;;;;;;;8.83;8.03;;;;;;;20.19;33.70;94499.13;6137873;28;110252;-59
2023/03/05 01:04:44;;;;;;;8.47;7.77;;;;;;;20.20;33.64;94491.94;6137471;28;109088;-59
2023/03/05 01:07:47;;;;;;;8.90;8.10;;;;;;;20.19;33.61;94493.81;6126812;28;109308;-59
2023/03/05 01:10:51;;;;;;;8.80;8.10;;;;;;;20.19;33.75;94490.38;6138094;28;109249;-59
2023/03/05 01:13:55;;;;;;;9.10;8.30;;;;;;;20.20;33.48;94486.63;6138519;28;109659;-60
2023/03/05 01:16:58;;;;;;;8.97;8.17;;;;;;;20.19;33.72;94480.53;6132375;28;109198;-60
2023/03/05 01:20:02;;;;;;;8.70;8.00;;;;;;;20.19;33.49;94483.19;6133645;28;110187;-59
2023/03/05 01:23:05;;;;;;;9.10;8.40;;;;;;;20.18;33.51;94481.63;6138220;28;109003;-60
2023/03/05 01:26:08;;;;;;;9.27;8.47;;;;;;;20.19;33.72;94479.75;6138133;28;110142;-59
2023/03/05 01:29:13;;;;;;;9.17;8.37;;;;;;;20.20;33.70;94473.34;6127407;28;110065;-60
2023/03/05 01:32:16;;;;;;;8.90;8.20;;;;;;;20.13;33.84;94465.81;6137268;28;109196;-60
2023/03/05 01:35:22;;;;;;;8.90;8.20;;;;;;;20.19;33.64;94474.44;6137884;28;109012;-60
2023/03/05 01:38:26;;;;;;;9.70;8.90;;;;;;;20.20;33.59;94476.00;6137632;28;109126;-59
2023/03/05 01:41:29;;;;;;;9.30;8.50;;;;;;;20.20;33.79;94468.03;6126344;28;109058;-59
2023/03/05 01:44:35;;;;;;;9.30;8.50;;;;;;;20.02;33.64;94448.59;6137480;28;109007;-59
2023/03/05 01:47:38;;;;;;;9.20;8.40;;;;;;;20.14;33.51;94463.94;6137754;28;109617;-59
2023/03/05 01:50:41;;;;;;;8.53;7.80;;;;;;;20.20;33.63;94476.78;6132534;28;109118;-59
2023/03/05 01:53:45;;;;;;;9.83;8.93;;;;;;;20.19;33.70;94475.22;6132094;28;109132;-58
2023/03/05 01:56:50;;;;;;;8.63;7.90;;;;;;;20.06;33.69;94457.50;6137189;28;108998;-60
2023/03/05 02:00:00;;;;;;;8.33;7.63;;;;;;;20.20;33.72;94482.09;6137341;28;109330;-59
2023/03/05 02:03:07;;;;;;;9.33;8.43;;;;;;;20.19;33.61;94480.53;6124517;28;109170;-59
2023/03/05 02:06:10;;;;;;;8.87;8.07;;;;;;;20.20;33.68;94478.66;6137222;28;109761;-59
2023/03/05 02:09:14;;;;;;;9.20;8.30;;;;;;;20.21;33.40;94477.56;6137108;28;109623;-59
2023/03/05 02:12:17;;;;;;;9.47;8.57;;;;;;;20.20;33.61;94473.34;6136985;28;108946;-59
2023/03/05 02:15:22;;;;;;;8.60;7.90;;;;;;;20.19;33.54;94475.22;6125818;28;110362;-59
2023/03/05 02:18:26;;;;;;;8.80;7.83;;;;;;;20.19;33.46;94475.22;6137016;28;110816;-59
2023/03/05 02:21:37;;;;;;;8.60;7.90;;;;;;;20.06;33.67;94457.50;6136586;28;109217;-59
2023/03/05 02:24:40;;;;;;;9.10;8.30;;;;;;;20.20;33.70;94481.31;6132399;28;111154;-59
2023/03/05 02:27:50;;;;;;;8.93;8.13;;;;;;;20.14;33.87;94467.38;6130160;28;109322;-60
2023/03/05 02:30:53;;;;;;;9.50;8.70;;;;;;;20.20;33.65;94479.44;6136525;28;109044;-58
2023/03/05 02:33:57;;;;;;;8.60;7.90;;;;;;;20.07;33.62;94456.41;6135785;28;109164;-59
2023/03/05 02:37:03;;;;;;;9.07;8.30;;;;;;;20.19;33.54;94475.22;6126558;28;110158;-60
2023/03/05 02:40:08;;;;;;;9.00;8.17;;;;;;;20.16;33.54;94473.16;6136906;28;109061;-58
2023/03/05 02:43:12;;;;;;;7.70;7.10;;;;;;;20.19;33.67;94472.56;6136603;28;110174;-58
2023/03/05 02:46:15;;;;;;;9.00;8.30;;;;;;;20.21;33.61;94485.53;6136549;28;110525;-59
2023/03/05 02:49:18;;;;;;;9.60;8.80;;;;;;;20.20;33.63;94476.78;6125558;28;110096;-58
2023/03/05 02:52:24;;;;;;;8.93;8.13;;;;;;;20.21;33.60;94482.88;6136464;28;109277;-57
2023/03/05 02:55:27;;;;;;;8.33;7.63;;;;;;;20.20;33.71;94482.09;6136634;28;109251;-59
2023/03/05 02:58:30;;;;;;;8.53;7.83;;;;;;;20.19;33.20;94479.75;6136149;28;109617;-58
2023/03/05 03:01:33;;;;;;;8.67;7.97;;;;;;;20.21;33.51;94481.00;6126653;28;110242;-58
2023/03/05 03:04:37;;;;;;;8.23;7.53;;;;;;;20.20;33.39;94476.78;6134830;28;110138;-58
2023/03/05 03:07:41;;;;;;;8.57;7.87;;;;;;;20.20;33.57;94468.81;6135970;28;109962;-58
2023/03/05 03:10:44;;;;;;;9.07;8.27;;;;;;;20.20;33.63;94476.78;6126297;28;110250;-57
2023/03/05 03:13:47;;;;;;;8.97;8.17;;;;;;;20.19;33.44;94477.88;6135183;28;109516;-58
2023/03/05 03:16:51;;;;;;;9.67;8.73;;;;;;;20.20;33.75;94473.34;6135960;28;109331;-58
2023/03/05 03:19:54;;;;;;;8.60;7.87;;;;;;;20.16;33.30;94469.72;6135786;28;109135;-58
2023/03/05 03:22:58;;;;;;;8.53;7.83;;;;;;;20.17;33.62;94480.06;6124763;28;110928;-58
2023/03/05 03:26:01;;;;;;;8.50;7.80;;;;;;;20.19;33.61;94477.09;6136294;28;110169;-59
2023/03/05 03:29:04;;;;;;;8.43;7.73;;;;;;;20.08;33.59;94463.28;6135780;28;109197;-59
2023/03/05 03:32:08;;;;;;;9.17;8.37;;;;;;;20.18;33.71;94473.66;6135785;28;110226;-59
2023/03/05 03:35:13;;;;;;;9.10;8.23;;;;;;;20.18;33.44;94468.34;6124454;28;109948;-61
2023/03/05 03:38:17;;;;;;;7.97;7.37;;;;;;;20.17;33.45;94466.78;6135753;28;110181;-59
2023/03/05 03:41:20;;;;;;;9.50;8.63;;;;;;;20.19;33.46;94463.81;6138288;28;110366;-59
2023/03/05 03:44:24;;;;;;;9.23;8.33;;;;;;;20.18;33.55;94463.03;6134391;28;109200;-59
2023/03/05 03:47:27;;;;;;;8.83;8.03;;;;;;;20.17;33.47;94461.47;6133953;28;111729;-59
2023/03/05 03:50:30;;;;;;;8.00;7.30;;;;;;;20.17;33.47;94464.13;6139629;28;109320;-59
2023/03/05 03:53:35;;;;;;;8.90;8.10;;;;;;;20.18;33.39;94465.69;6139720;28;109216;-57
2023/03/05 03:56:38;;;;;;;8.90;8.10;;;;;;;20.17;33.48;94461.47;6129611;28;110259;-59
2023/03/05 03:59:41;;;;;;;9.20;8.27;;;;;;;20.19;33.32;94469.13;6139843;28;110209;-59
2023/03/05 04:02:44;;;;;;;8.63;7.93;;;;;;;20.18;33.33;94471.00;6139232;28;109283;-57
2023/03/05 04:05:47;;;;;;;9.10;8.30;;;;;;;20.18;33.59;94480.84;6138537;28;109072;-58
2023/03/05 04:08:52;;;;;;;8.00;7.30;;;;;;;20.18;33.57;94478.97;6128579;28;110142;-57
2023/03/05 04:11:55;;;;;;;8.80;8.00;;;;;;;20.18;33.47;94483.50;6139395;28;109993;-59
2023/03/05 04:14:58;;;;;;;7.87;7.13;;;;;;;20.18;33.46;94473.66;6139262;28;109383;-59
2023/03/05 04:18:01;;;;;;;9.20;8.33;;;;;;;20.17;33.56;94479.28;6139185;28;109237;-59
2023/03/05 04:21:05;;;;;;;8.37;7.67;;;;;;;20.08;33.55;94463.28;6129299;28;109067;-59
2023/03/05 04:24:10;;;;;;;9.07;8.10;;;;;;;20.17;33.46;94473.97;6139226;28;110452;-59
2023/03/05 04:27:13;;;;;;;8.00;7.30;;;;;;;20.19;33.63;94477.09;6139284;28;109199;-59
2023/03/05 04:30:16;;;;;;;7.77;7.13;;;;;;;20.19;33.35;94475.22;6128257;28;109637;-59
2023/03/05 04:33:19;;;;;;;8.67;7.87;;;;;;;20.19;33.52;94463.81;6138432;28;109050;-59
2023/03/05 04:36:22;;;;;;;8.07;7.33;;;;;;;20.18;33.53;94468.34;6138350;28;108706;-59
2023/03/05 04:39:27;;;;;;;8.37;7.67;;;;;;;20.18;33.38;94468.34;6138789;28;109159;-59
2023/03/05 04:42:30;;;;;;;8.53;7.77;;;;;;;20.19;33.50;94466.47;6128048;28;110327;-59
2023/03/05 04:45:34;;;;;;;8.40;7.60;;;;;;;20.18;33.30;94467.56;6138733;28;109306;-58
2023/03/05 04:48:37;;;;;;;8.23;7.53;;;;;;;20.16;33.41;94465.19;6138978;28;109093;-57
2023/03/05 04:51:40;;;;;;;8.67;7.90;;;;;;;20.18;33.32;94462.25;6138137;28;109578;-57
2023/03/05 04:54:45;;;;;;;8.20;7.50;;;;;;;20.15;33.39;94458.31;6127503;28;109601;-58
2023/03/05 04:57:49;;;;;;;8.23;7.53;;;;;;;20.17;33.41;94461.47;6138540;28;109110;-58
2023/03/05 05:00:52;;;;;;;8.83;8.00;;;;;;;20.15;33.38;94458.31;6138226;28;109256;-59
2023/03/05 05:03:55;;;;;;;8.10;7.40;;;;;;;20.17;33.33;94472.09;6132636;28;109306;-58
2023/03/05 05:06:58;;;;;;;8.97;8.17;;;;;;;20.18;33.36;94472.88;6132618;28;111480;-58
2023/03/05 05:10:04;;;;;;;8.20;7.50;;;;;;;20.17;33.36;94463.34;6138378;28;108718;-58
2023/03/05 05:13:07;;;;;;;8.70;7.90;;;;;;;20.18;33.53;94470.22;6138095;28;109291;-58
2023/03/05 05:16:10;;;;;;;8.83;8.03;;;;;;;20.12;33.17;94458.16;6127569;28;109028;-58
2023/03/05 05:19:13;;;;;;;9.20;8.40;;;;;;;20.09;33.49;94464.06;6138081;28;108925;-58
2023/03/05 05:22:17;;;;;;;8.93;8.10;;;;;;;20.17;33.33;94477.41;6137762;28;109085;-58
2023/03/05 05:25:21;;;;;;;8.63;7.90;;;;;;;20.17;33.33;94477.41;6137830;28;109520;-59
2023/03/05 05:28:24;;;;;;;8.20;7.40;;;;;;;20.18;33.80;94478.19;6126579;28;109084;-57
2023/03/05 05:31:28;;;;;;;7.87;7.17;;;;;;;20.17;33.20;94477.41;6148879;28;110091;-59
2023/03/05 05:34:31;;;;;;;8.37;7.60;;;;;;;20.18;33.41;94484.28;6162170;28;108757;-59
2023/03/05 05:37:34;;;;;;;8.50;7.80;;;;;;;20.18;33.24;94481.63;6160421;28;110216;-58
2023/03/05 05:40:39;;;;;;;8.00;7.30;;;;;;;20.18;33.30;94489.59;6153469;28;110948;-58
2023/03/05 05:43:42;;;;;;;8.77;7.90;;;;;;;20.17;33.33;94488.03;6161812;28;110268;-59
2023/03/05 05:46:45;;;;;;;9.10;8.27;;;;;;;20.18;33.35;94489.59;6161973;28;110176;-59
2023/03/05 05:49:48;;;;;;;8.80;8.03;;;;;;;20.19;33.39;94501.78;6152122;28;110274;-59
2023/03/05 05:52:52;;;;;;;7.90;7.23;;;;;;;20.18;33.31;94496.78;6161361;28;110198;-59
2023/03/05 05:55:56;;;;;;;9.43;8.53;;;;;;;20.19;33.23;94504.44;6161418;28;109462;-58
2023/03/05 05:59:00;;;;;;;7.93;7.23;;;;;;;20.19;33.30;94504.44;6162031;28;108960;-58
2023/03/05 06:02:03;;;;;;;8.20;7.50;;;;;;;20.20;33.19;94502.56;6149963;28;110701;-59
2023/03/05 06:05:07;;;;;;;8.50;7.80;;;;;;;20.21;33.36;94504.13;6160789;28;109041;-59
2023/03/05 06:08:11;;;;;;;8.50;7.80;;;;;;;20.21;33.13;94504.91;6160887;28;108970;-62
2023/03/05 06:11:16;;;;;;;7.80;7.10;;;;;;;20.19;33.14;94501.78;6161487;28;109886;-58
2023/03/05 06:14:21;;;;;;;7.57;6.87;;;;;;;20.23;33.20;94513.38;6149916;28;111119;-58
2023/03/05 06:17:24;;;;;;;9.00;8.10;;;;;;;20.22;33.16;94521.63;6161330;28;110394;-58
2023/03/05 06:20:32;;;;;;;8.83;8.03;;;;;;;20.13;33.22;94497.69;6161192;28;109308;-59
2023/03/05 06:23:36;;;;;;;8.60;7.80;;;;;;;20.22;32.96;94519.78;6155603;28;110089;-59
2023/03/05 06:26:40;;;;;;;8.30;7.57;;;;;;;20.25;33.29;94521.06;6155978;28;109628;-59
2023/03/05 06:29:43;;;;;;;8.80;8.03;;;;;;;20.26;33.06;94518.09;6161052;28;109201;-59
2023/03/05 06:32:46;;;;;;;9.27;8.47;;;;;;;20.26;33.03;94518.09;6160804;28;109628;-59
2023/03/05 06:35:49;;;;;;;7.70;7.00;;;;;;;20.19;32.98;94512.41;6149506;28;108809;-59
2023/03/05 06:38:53;;;;;;;7.57;6.90;;;;;;;20.29;33.19;94528.09;6159909;28;109093;-59
2023/03/05 06:41:58;;;;;;;8.30;7.60;;;;;;;20.28;32.87;94521.22;6160810;28;109052;-59
2023/03/05 06:45:01;;;;;;;8.03;7.33;;;;;;;20.31;33.08;94525.91;6160498;28;109569;-58
2023/03/05 06:48:04;;;;;;;8.30;7.60;;;;;;;20.32;32.92;94522.16;6149594;28;110889;-58
2023/03/05 06:51:14;;;;;;;8.47;7.67;;;;;;;20.35;32.76;94525.31;6161076;28;110057;-58
2023/03/05 06:54:17;;;;;;;8.27;7.57;;;;;;;20.28;32.89;94521.22;6160538;28;109050;-59
2023/03/05 06:57:22;;;;;;;8.17;7.47;;;;;;;20.38;32.89;94527.38;6155631;28;110399;-59
2023/03/05 07:00:28;;;;;;;7.90;7.20;;;;;;;20.39;32.84;94523.63;6155585;28;110436;-59
2023/03/05 07:03:31;;;;;;;8.07;7.40;;;;;;;20.41;32.71;94524.88;6159897;28;109241;-59
2023/03/05 07:06:37;;;;;;;8.33;7.57;;;;;;;20.27;32.98;94503.72;6160378;28;109201;-59
2023/03/05 07:09:42;;;;;;;7.90;7.10;;;;;;;20.42;33.01;94533.63;6148864;28;110111;-59
2023/03/05 07:12:47;;;;;;;7.20;6.50;;;;;;;20.44;33.00;94532.22;6160211;28;109361;-58
2023/03/05 07:15:50;;;;;;;8.67;7.87;;;;;;;20.45;32.83;94538.31;6163376;28;109224;-58
2023/03/05 07:18:54;;;;;;;8.03;7.30;;;;;;;20.46;32.77;94534.56;6164830;28;110229;-60
2023/03/05 07:21:57;;;;;;;8.37;7.63;;;;;;;20.47;32.87;94533.47;6153246;28;110126;-59
2023/03/05 07:25:01;;;;;;;9.53;8.63;;;;;;;20.50;32.86;94527.53;6164546;28;110607;-59
2023/03/05 07:28:06;;;;;;;7.93;7.23;;;;;;;20.53;32.71;94535.72;6164419;28;109214;-59
2023/03/05 07:31:13;;;;;;;7.87;7.20;;;;;;;20.65;32.68;94534.31;6163292;28;109280;-57
2023/03/05 07:34:16;;;;;;;7.03;6.43;;;;;;;20.71;32.64;94538.41;6157999;28;109052;-58
2023/03/05 07:37:19;;;;;;;8.77;7.40;;;;;;;20.67;32.40;94519.66;6164273;28;110380;-58
2023/03/05 07:40:22;;;;;;;7.83;7.13;;;;;;;20.79;32.34;94540.31;6163183;28;109460;-58
2023/03/05 07:43:27;;;;;;;8.03;7.33;;;;;;;20.74;32.66;94535.91;6153638;28;109348;-58
2023/03/05 07:46:33;;;;;;;8.30;7.60;;;;;;;20.73;32.55;94538.91;6163729;28;109060;-59
2023/03/05 07:49:38;;;;;;;7.77;7.10;;;;;;;20.68;32.49;94534.50;6164464;28;109438;-58
2023/03/05 07:52:41;;;;;;;7.07;6.40;;;;;;;20.72;32.42;94535.44;6163709;28;109242;-57
2023/03/05 07:55:44;;;;;;;7.33;6.63;;;;;;;20.69;32.67;94536.06;6152630;28;109670;-58
2023/03/05 07:58:49;;;;;;;7.23;6.63;;;;;;;20.68;32.23;94528.41;6163639;28;109337;-58
2023/03/05 08:01:52;;;;;;;7.50;6.80;;;;;;;20.66;32.90;94531.34;6163758;28;109109;-58
2023/03/05 08:04:55;;;;;;;7.40;6.80;;;;;;;20.65;32.67;94535.09;6162955;28;109438;-58
2023/03/05 08:07:59;;;;;;;8.07;7.37;;;;;;;20.63;32.68;94537.28;6152042;28;109185;-58
2023/03/05 08:11:04;;;;;;;7.73;7.03;;;;;;;20.61;32.94;94526.19;6162540;28;109252;-58
2023/03/05 08:14:09;;;;;;;8.30;7.50;;;;;;;20.59;32.78;94537.13;6163621;28;109265;-57
2023/03/05 08:17:12;;;;;;;7.53;6.83;;;;;;;20.57;32.59;94533.22;6154318;28;109246;-58
2023/03/05 08:20:15;;;;;;;7.60;7.00;;;;;;;20.56;32.88;94535.09;6163111;28;110364;-58
2023/03/05 08:23:18;;;;;;;7.63;6.93;;;;;;;20.51;32.77;94529.91;6162923;28;109051;-58
2023/03/05 08:26:24;;;;;;;7.40;6.80;;;;;;;20.53;32.58;94533.06;6162067;28;109217;-58
2023/03/05 08:29:29;;;;;;;8.20;7.40;;;;;;;20.52;32.63;94536.03;6151225;28;109121;-59
2023/03/05 08:32:32;;;;;;;7.50;6.90;;;;;;;20.44;32.87;94520.81;6163596;28;110120;-59
2023/03/05 08:35:35;;;;;;;7.40;6.80;;;;;;;20.49;32.85;94531.28;6163208;28;110097;-57
2023/03/05 08:38:39;;;;;;;7.00;6.40;;;;;;;20.49;32.88;94525.97;6162821;28;109033;-57
2023/03/05 08:41:42;;;;;;;7.30;6.60;;;;;;;20.47;32.96;94526.28;6151648;28;110565;-58
2023/03/05 08:44:46;;;;;;;7.20;6.60;;;;;;;20.48;33.03;94516.44;6162616;28;108733;-58
2023/03/05 08:47:49;;;;;;;8.03;7.33;;;;;;;20.45;32.96;94514.41;6163028;28;110053;-58
2023/03/05 08:50:53;;;;;;;7.37;6.77;;;;;;;20.42;32.94;94507.06;6157488;28;109286;-58
2023/03/05 08:54:00;;;;;;;7.83;7.13;;;;;;;20.40;32.95;94510.03;6156872;28;111891;-57
2023/03/05 08:57:04;;;;;;;7.77;7.07;;;;;;;20.45;32.98;94506.44;6162374;28;109140;-58
2023/03/05 09:00:11;;;;;;;8.03;7.33;;;;;;;20.44;33.02;94499.56;6162327;28;109168;-58
2023/03/05 09:03:14;;;;;;;8.47;7.77;;;;;;;20.44;32.86;94497.69;6151527;28;109003;-57
2023/03/05 09:06:18;;;;;;;7.10;6.50;;;;;;;20.44;32.78;94502.22;6162575;28;110444;-59
2023/03/05 09:09:21;;;;;;;7.37;6.67;;;;;;;20.42;33.09;94494.53;6162326;28;109658;-59
2023/03/05 09:12:25;;;;;;;7.30;6.70;;;;;;;20.43;33.09;94492.66;6161469;28;109410;-58
2023/03/05 09:15:30;;;;;;;7.57;6.80;;;;;;;20.43;32.97;94493.47;6151343;28;110464;-58
2023/03/05 09:18:35;;;;;;;8.13;7.40;;;;;;;20.42;32.81;94480.47;6162032;28;109296;-57
2023/03/05 09:21:38;;;;;;;7.73;7.03;;;;;;;20.42;32.82;94478.59;6161855;28;108998;-57
2023/03/05 09:24:42;;;;;;;7.20;6.60;;;;;;;20.44;32.61;94486.25;6158790;28;109327;-68
2023/03/05 09:27:45;;;;;;;7.60;6.90;;;;;;;20.43;32.72;94482.03;6151399;28;109543;-61
2023/03/05 09:30:50;;;;;;;12.37;10.10;;;;;;;20.36;32.72;94481.72;6151652;28;110666;-61
2023/03/05 09:33:53;;;;;;;12.33;10.93;;;;;;;20.24;32.78;94467.13;6155101;28;109117;-60
2023/03/05 09:36:56;;;;;;;12.13;10.63;;;;;;;20.37;32.49;94475.31;6152262;28;109470;-60
2023/03/05 09:39:59;;;;;;;12.77;11.57;;;;;;;20.35;32.22;94472.19;6161957;28;109066;-61
2023/03/05 09:43:11;;;;;;;12.13;10.93;;;;;;;20.30;31.97;94465.91;6161251;28;108876;-61
2023/03/05 09:46:40;;;;;;;12.37;11.17;;;;;;;20.39;31.28;94468.59;6161983;28;109043;-60
2023/03/05 09:49:52;;;;;;;12.90;11.57;;;;;;;20.51;30.80;94460.03;6128792;28;108727;-61
2023/03/05 09:53:01;;;;;;;15.70;12.03;;;;;;;20.54;30.76;94454.09;6159778;28;109694;-60
2023/03/05 09:56:10;;;;;;;14.17;12.37;;;;;;;20.54;30.05;94454.88;6154564;28;109190;-60
2023/03/05 09:59:32;;;;;;;13.40;12.17;;;;;;;20.47;29.79;94443.91;6146965;28;109200;-60
2023/03/05 10:02:47;;;;;;;16.83;13.73;;;;;;;20.60;29.81;94450.97;6147976;28;109218;-59
2023/03/05 10:06:15;;;;;;;21.27;14.43;;;;;;;20.61;29.63;94441.91;6154422;28;110140;-62
2023/03/05 10:09:30;;;;;;;24.40;13.83;;;;;;;20.65;29.62;94438.63;6156007;28;110176;-62
2023/03/05 10:12:41;;;;;;;15.20;13.17;;;;;;;20.70;29.31;94443.81;6139792;28;110425;-60
2023/03/05 10:15:56;;;;;;;15.60;13.50;;;;;;;20.73;29.28;94428.00;6147194;28;109048;-59
2023/03/05 10:19:09;;;;;;;16.13;14.43;;;;;;;20.82;28.90;94428.00;6158026;28;110436;-60
2023/03/05 10:22:20;;;;;;;17.57;13.27;;;;;;;20.81;28.88;94421.91;6152355;28;110214;-62
2023/03/05 10:25:31;;;;;;;17.03;12.50;;;;;;;20.84;29.00;94415.19;6160108;28;109585;-62
2023/03/05 10:28:43;;;;;;;13.23;12.00;;;;;;;20.92;29.57;94401.88;6159709;28;108764;-60
2023/03/05 10:31:58;;;;;;;15.53;10.70;;;;;;;21.01;30.78;94406.44;6155024;28;110109;-62
2023/03/05 10:35:23;;;;;;;15.27;11.80;;;;;;;21.06;30.59;94401.75;6138451;28;110248;-60
2023/03/05 10:38:46;;;;;;;14.93;11.40;;;;;;;21.04;31.50;94398.59;6160086;28;108908;-60
2023/03/05 10:42:01;;;;;;;12.60;10.63;;;;;;;21.03;31.39;94397.03;6159001;28;110336;-60
2023/03/05 10:45:14;;;;;;;14.50;10.00;;;;;;;21.02;31.70;94390.16;6151363;28;110682;-60
2023/03/05 10:48:27;;;;;;;16.53;10.43;;;;;;;21.01;31.84;94391.25;6141882;28;109264;-61
2023/03/05 10:51:36;;;;;;;12.07;9.17;;;;;;;21.06;31.87;94387.69;6144010;28;109739;-60
2023/03/05 10:54:41;;;;;;;11.57;10.37;;;;;;;21.06;32.35;94382.34;6161472;28;110223;-61
2023/03/05 10:57:45;;;;;;;13.33;10.57;;;;;;;21.10;32.58;94373.41;6149303;28;110024;-62
2023/03/05 11:01:03;;;;;;;13.10;10.10;;;;;;;21.09;32.46;94366.53;6158454;28;108876;-60
2023/03/05 11:04:25;;;;;;;17.37;11.10;;;;;;;21.05;32.23;94367.50;6155891;28;108826;-62
2023/03/05 11:07:37;;;;;;;14.07;11.30;;;;;;;20.93;30.88;94355.56;6145894;28;111291;-60
2023/03/05 11:10:41;;;;;;;11.87;10.10;;;;;;;21.00;30.78;94355.09;6140325;28;110138;-61
2023/03/05 11:13:52;;;;;;;11.47;10.37;;;;;;;20.90;30.57;94337.59;6153067;28;111334;-60
2023/03/05 11:16:56;;;;;;;13.00;9.80;;;;;;;20.98;30.78;94348.53;6143039;28;109131;-61
2023/03/05 11:20:29;;;;;;;13.50;9.07;;;;;;;20.97;30.76;94339.75;6147649;28;109265;-60
2023/03/05 11:23:34;;;;;;;14.20;10.10;;;;;;;20.90;30.97;94340.25;6154303;28;110147;-60
2023/03/05 11:26:37;;;;;;;10.80;9.63;;;;;;;20.87;30.96;94332.91;6147844;28;110135;-62
2023/03/05 11:29:49;;;;;;;11.13;9.03;;;;;;;20.85;30.85;94332.44;6149655;28;108907;-62
2023/03/05 11:33:07;;;;;;;11.40;10.10;;;;;;;20.88;30.73;94334.47;6152531;28;110157;-62
2023/03/05 11:36:22;;;;;;;15.07;9.40;;;;;;;20.92;30.93;94321.31;6157921;28;109723;-62
2023/03/05 11:39:31;;;;;;;11.47;9.20;;;;;;;20.91;31.23;94320.53;6158452;28;110056;-62
2023/03/05 11:42:35;;;;;;;10.10;9.10;;;;;;;20.91;31.30;94317.88;6138283;28;110220;-60
2023/03/05 11:45:39;;;;;;;9.73;8.77;;;;;;;20.98;31.25;94305.97;6153945;28;108968;-61
2023/03/05 11:48:44;;;;;;;11.57;9.23;;;;;;;20.98;31.37;94301.44;6156950;28;109628;-61
2023/03/05 11:51:58;;;;;;;8.93;8.13;;;;;;;20.97;31.89;94296.44;6157159;28;108951;-61
2023/03/05 11:55:09;;;;;;;9.90;8.20;;;;;;;20.99;31.73;94291.56;6147904;28;109145;-60
2023/03/05 11:58:26;;;;;;;10.20;8.10;;;;;;;20.98;31.82;94290.00;6148452;28;109044;-62
2023/03/05 12:01:33;;;;;;;10.40;8.40;;;;;;;21.03;32.27;94284.53;6146437;28;109131;-62
2023/03/05 12:04:37;;;;;;;9.67;8.70;;;;;;;21.05;32.21;94280.50;6153802;28;108977;-61
2023/03/05 12:07:46;;;;;;;8.37;7.57;;;;;;;20.93;32.60;94254.50;6159742;28;109105;-60
2023/03/05 12:10:52;;;;;;;9.60;8.80;;;;;;;21.02;32.98;94259.81;6162359;28;109404;-60
2023/03/05 12:14:04;;;;;;;9.83;8.23;;;;;;;21.03;32.97;94264.03;6163280;28;109185;-60
2023/03/05 12:17:14;;;;;;;9.60;8.70;;;;;;;21.05;33.46;94263.75;6151146;28;109157;-61
2023/03/05 12:20:27;;;;;;;9.57;8.50;;;;;;;21.05;33.51;94261.09;6155578;28;109073;-61
2023/03/05 12:23:45;;;;;;;9.10;8.20;;;;;;;21.07;33.95;94258.91;6159478;28;110172;-62
2023/03/05 12:27:06;;;;;;;8.97;8.10;;;;;;;21.06;33.98;94252.78;6149163;28;110264;-61
2023/03/05 12:30:54;;;;;;;10.17;9.07;;;;;;;21.08;34.28;94245.28;6158097;28;110137;-62
2023/03/05 12:33:57;;;;;;;9.10;8.17;;;;;;;21.07;34.33;94242.94;6152922;28;109235;-61
2023/03/05 12:37:04;;;;;;;8.40;7.60;;;;;;;21.06;34.42;94247.47;6159831;28;110109;-62
2023/03/05 12:40:21;;;;;;;8.60;7.73;;;;;;;21.06;34.53;94236.06;6128029;28;109432;-61
2023/03/05 12:43:31;;;;;;;10.43;8.33;;;;;;;21.04;34.42;94246.22;6158631;28;109980;-61
2023/03/05 12:46:36;;;;;;;8.63;7.83;;;;;;;20.89;33.94;94234.19;6161227;28;108988;-61
2023/03/05 12:49:40;;;;;;;9.47;8.57;;;;;;;20.78;32.78;94240.94;6156966;28;110645;-61
2023/03/05 12:52:46;;;;;;;10.57;9.57;;;;;;;20.76;33.19;94233.28;6152896;28;109730;-60
2023/03/05 12:55:56;;;;;;;10.80;9.73;;;;;;;20.84;33.04;94231.72;6155292;28;109533;-62
2023/03/05 12:59:03;;;;;;;11.53;10.43;;;;;;;20.90;32.79;94241.06;6153605;28;109129;-59
2023/03/05 13:02:20;;;;;;;10.47;9.10;;;;;;;20.93;32.93;94232.47;6149677;28;109109;-58
2023/03/05 13:05:27;;;;;;;10.17;9.20;;;;;;;21.00;33.24;94232.72;6160586;28;109418;-58
2023/03/05 13:08:34;;;;;;;9.93;9.00;;;;;;;20.98;33.01;94228.84;6145906;28;109274;-61
2023/03/05 13:11:39;;;;;;;9.70;8.80;;;;;;;20.99;33.01;94225.06;6143749;28;110149;-58
2023/03/05 13:14:46;;;;;;;10.13;9.17;;;;;;;20.98;33.44;94226.19;6146789;28;110123;-61
2023/03/05 13:17:56;;;;;;;9.30;8.50;;;;;;;20.88;33.32;94222.78;6155664;28;109157;-58
2023/03/05 13:21:04;;;;;;;10.20;9.17;;;;;;;20.89;33.30;94234.19;6155134;28;109851;-59
2023/03/05 13:24:16;;;;;;;10.10;9.10;;;;;;;20.91;33.05;94227.47;6132213;28;109278;-58
2023/03/05 13:27:24;;;;;;;10.53;9.50;;;;;;;20.98;32.93;94226.19;6152522;28;109077;-58
2023/03/05 13:30:31;;;;;;;11.10;10.10;;;;;;;21.05;33.22;94223.84;6148331;28;109862;-59
2023/03/05 13:33:36;;;;;;;9.43;8.53;;;;;;;21.03;33.57;94223.38;6149695;28;109992;-58
2023/03/05 13:36:40;;;;;;;9.53;8.63;;;;;;;21.04;33.25;94223.03;6149629;28;109242;-58
2023/03/05 13:39:48;;;;;;;8.97;8.27;;;;;;;21.06;33.69;94228.06;6161980;28;109157;-58
2023/03/05 13:42:53;;;;;;;10.00;8.57;;;;;;;21.02;33.99;94227.13;6159815;28;109110;-58
2023/03/05 13:45:58;;;;;;;8.73;7.93;;;;;;;21.04;33.78;94228.38;6160552;28;110138;-58
2023/03/05 13:49:21;;;;;;;9.03;8.23;;;;;;;21.07;34.00;94230.41;6127183;28;110132;-58
2023/03/05 13:52:28;;;;;;;9.40;8.50;;;;;;;21.08;34.33;94220.56;6150732;28;109167;-58
2023/03/05 13:55:31;;;;;;;9.27;8.20;;;;;;;21.08;34.41;94223.22;6161508;28;110380;-58
2023/03/05 13:58:47;;;;;;;9.23;8.30;;;;;;;21.09;34.52;94219.44;6143017;28;109325;-58
2023/03/05 14:01:52;;;;;;;8.43;7.73;;;;;;;21.02;34.79;94227.13;6137211;28;108906;-58
2023/03/05 14:04:56;;;;;;;9.57;8.70;;;;;;;21.03;34.48;94220.72;6140944;28;109266;-57
2023/03/05 14:07:59;;;;;;;8.27;7.57;;;;;;;20.99;34.70;94209.13;6160848;28;109358;-58
2023/03/05 14:11:13;;;;;;;7.97;7.20;;;;;;;21.00;34.75;94221.31;6149826;28;109295;-59
2023/03/05 14:14:19;;;;;;;8.33;7.50;;;;;;;21.02;34.81;94214.59;6161190;28;109138;-59
2023/03/05 14:17:38;;;;;;;8.43;7.57;;;;;;;21.02;34.87;94219.94;6160794;28;109111;-59
2023/03/05 14:20:59;;;;;;;8.63;7.80;;;;;;;21.02;34.86;94219.16;6138152;28;110564;-58